Time;durP1;ratioP1;P1;durP2;ratioP2;P2;SDS_P1;SDS_P2;PMS_P1;PMS_P2;Temp;Humidity;BMP_temperature;BMP_pressure;BME280_temperature;BME280_humidity;BME280_pressure;Samples;Min_cycle;Max_cycle;Signal;HPM_P1;HPM_P2
2022/07/25 00:01:06;;;;;;;0.80;0.80;;;;;;;;;;7390573;19;20141;-68
2022/07/25 00:03:32;;;;;;;0.63;0.63;;;;;;;;;;7390705;19;20140;-68
2022/07/25 00:05:57;;;;;;;0.75;0.75;;;;;;;;;;7390059;19;20157;-68
2022/07/25 00:08:22;;;;;;;1.00;0.40;;;;;;;;;;7391726;19;20129;-67
2022/07/25 00:10:48;;;;;;;0.50;0.50;;;;;;;;;;7392581;19;20136;-68
2022/07/25 00:13:13;;;;;;;0.30;0.30;;;;;;;;;;7390713;19;20121;-68
2022/07/25 00:15:38;;;;;;;2.08;1.05;;;;;;;;;;7389906;19;20654;-68
2022/07/25 00:18:03;;;;;;;1.10;1.00;;;;;;;;;;7392737;19;20125;-68
2022/07/25 00:20:29;;;;;;;0.63;0.63;;;;;;;;;;7391284;19;20117;-68
2022/07/25 00:22:54;;;;;;;1.20;1.20;;;;;;;;;;7389294;19;20156;-68
2022/07/25 00:25:19;;;;;;;0.63;0.63;;;;;;;;;;7390318;19;20135;-68
2022/07/25 00:27:45;;;;;;;0.38;0.38;;;;;;;;;;7392347;19;20121;-68
2022/07/25 00:30:10;;;;;;;0.35;0.35;;;;;;;;;;7392832;19;20113;-67
2022/07/25 00:32:36;;;;;;;0.30;0.30;;;;;;;;;;7390460;19;20176;-67
2022/07/25 00:35:01;;;;;;;0.52;0.52;;;;;;;;;;7389556;19;20125;-69
2022/07/25 00:37:26;;;;;;;0.40;0.40;;;;;;;;;;7390173;19;20396;-69
2022/07/25 00:39:52;;;;;;;0.80;0.80;;;;;;;;;;7391474;19;20600;-68
2022/07/25 00:42:17;;;;;;;0.70;0.70;;;;;;;;;;7388587;19;20187;-68
2022/07/25 00:44:42;;;;;;;0.40;0.40;;;;;;;;;;7389749;19;20161;-69
2022/07/25 00:47:08;;;;;;;3.05;0.80;;;;;;;;;;7388829;19;20125;-69
2022/07/25 00:49:33;;;;;;;0.45;0.45;;;;;;;;;;7392123;19;20141;-69
2022/07/25 00:51:59;;;;;;;0.40;0.40;;;;;;;;;;7390658;19;20145;-68
2022/07/25 00:54:24;;;;;;;0.50;0.50;;;;;;;;;;7388992;19;20205;-68
2022/07/25 00:56:50;;;;;;;0.47;0.47;;;;;;;;;;7390440;19;20153;-68
2022/07/25 00:59:16;;;;;;;0.73;0.73;;;;;;;;;;7388510;19;20465;-69
2022/07/25 01:01:44;;;;;;;0.52;0.52;;;;;;;;;;7387696;19;20155;-69
2022/07/25 01:04:09;;;;;;;0.30;0.30;;;;;;;;;;7390449;19;20132;-69
2022/07/25 01:06:35;;;;;;;0.70;0.70;;;;;;;;;;7389984;19;20121;-69
2022/07/25 01:09:00;;;;;;;0.60;0.60;;;;;;;;;;7390883;19;20628;-68
2022/07/25 01:11:25;;;;;;;0.30;0.30;;;;;;;;;;7387321;19;20599;-68
2022/07/25 01:13:51;;;;;;;0.52;0.52;;;;;;;;;;7390526;19;20188;-68
2022/07/25 01:16:16;;;;;;;0.73;0.73;;;;;;;;;;7387936;19;20607;-68
2022/07/25 01:18:42;;;;;;;2.25;0.80;;;;;;;;;;7388705;19;20479;-69
2022/07/25 01:21:07;;;;;;;0.63;0.45;;;;;;;;;;7389338;19;20158;-69
2022/07/25 01:23:33;;;;;;;0.40;0.40;;;;;;;;;;7388000;19;20185;-69
2022/07/25 01:25:58;;;;;;;0.32;0.32;;;;;;;;;;7386712;19;20850;-68
2022/07/25 01:28:23;;;;;;;0.40;0.40;;;;;;;;;;7388613;19;20141;-69
2022/07/25 01:30:48;;;;;;;0.82;0.82;;;;;;;;;;7387642;19;20561;-69
2022/07/25 01:33:15;;;;;;;0.38;0.38;;;;;;;;;;7389126;19;20134;-68
2022/07/25 01:35:41;;;;;;;0.50;0.50;;;;;;;;;;7388034;19;20138;-69
2022/07/25 01:38:06;;;;;;;0.40;0.40;;;;;;;;;;7390162;19;20117;-69
2022/07/25 01:40:31;;;;;;;0.30;0.30;;;;;;;;;;7390629;19;20677;-68
2022/07/25 01:42:57;;;;;;;1.13;1.13;;;;;;;;;;7389417;19;20153;-68
2022/07/25 01:45:22;;;;;;;0.50;0.50;;;;;;;;;;7388749;19;20137;-69
2022/07/25 01:47:47;;;;;;;0.32;0.32;;;;;;;;;;7389597;19;20122;-69
2022/07/25 01:50:12;;;;;;;0.52;0.52;;;;;;;;;;7389512;19;20145;-69
2022/07/25 01:52:38;;;;;;;0.55;0.55;;;;;;;;;;7385593;19;20149;-69
2022/07/25 01:55:04;;;;;;;0.95;0.95;;;;;;;;;;7389152;19;20117;-68
2022/07/25 01:57:29;;;;;;;5.32;1.50;;;;;;;;;;7387956;19;20545;-68
2022/07/25 01:59:55;;;;;;;0.63;0.63;;;;;;;;;;7389076;19;20490;-68
2022/07/25 02:02:20;;;;;;;0.93;0.93;;;;;;;;;;7387765;19;20205;-68
2022/07/25 02:04:45;;;;;;;0.40;0.40;;;;;;;;;;7388572;19;20508;-69
2022/07/25 02:07:10;;;;;;;0.40;0.40;;;;;;;;;;7389541;19;20129;-68
2022/07/25 02:09:36;;;;;;;0.82;0.77;;;;;;;;;;7387016;19;20122;-68
2022/07/25 02:12:01;;;;;;;0.35;0.35;;;;;;;;;;7392384;19;20141;-68
2022/07/25 02:14:26;;;;;;;0.30;0.30;;;;;;;;;;7393188;19;20125;-68
2022/07/25 02:16:52;;;;;;;0.30;0.30;;;;;;;;;;7396769;19;20138;-68
2022/07/25 02:19:17;;;;;;;0.98;0.98;;;;;;;;;;7394855;19;20213;-68
2022/07/25 02:21:43;;;;;;;1.60;1.50;;;;;;;;;;7392850;19;20566;-68
2022/07/25 02:24:08;;;;;;;1.50;1.10;;;;;;;;;;7394054;19;20121;-68
2022/07/25 02:26:33;;;;;;;0.68;0.68;;;;;;;;;;7395657;19;20123;-68
2022/07/25 02:28:59;;;;;;;2.88;0.95;;;;;;;;;;7394406;19;20121;-68
2022/07/25 02:31:24;;;;;;;0.65;0.65;;;;;;;;;;7394762;19;20141;-68
2022/07/25 02:33:49;;;;;;;1.15;1.15;;;;;;;;;;7391063;19;20144;-68
2022/07/25 02:36:15;;;;;;;0.45;0.45;;;;;;;;;;7394494;19;20632;-69
2022/07/25 02:38:40;;;;;;;0.70;0.70;;;;;;;;;;7392347;19;20188;-68
2022/07/25 02:41:05;;;;;;;1.10;1.10;;;;;;;;;;7393253;19;20191;-68
2022/07/25 02:43:31;;;;;;;0.50;0.50;;;;;;;;;;7392061;19;20530;-68
2022/07/25 02:45:56;;;;;;;3.95;1.95;;;;;;;;;;7394464;19;20129;-69
2022/07/25 02:48:21;;;;;;;0.40;0.40;;;;;;;;;;7394510;19;20235;-68
2022/07/25 02:50:47;;;;;;;0.30;0.30;;;;;;;;;;7394678;19;20134;-68
2022/07/25 02:53:12;;;;;;;0.40;0.40;;;;;;;;;;7393930;19;20139;-68
2022/07/25 02:55:37;;;;;;;0.73;0.73;;;;;;;;;;7392085;19;20155;-68
2022/07/25 02:58:03;;;;;;;0.75;0.75;;;;;;;;;;7395280;19;20137;-68
2022/07/25 03:00:29;;;;;;;0.80;0.80;;;;;;;;;;7394617;19;20137;-68
2022/07/25 03:02:54;;;;;;;1.50;1.05;;;;;;;;;;7390916;19;20169;-69
2022/07/25 03:05:20;;;;;;;0.68;0.68;;;;;;;;;;7391345;19;20481;-68
2022/07/25 03:07:45;;;;;;;1.35;1.35;;;;;;;;;;7392665;19;20117;-68
2022/07/25 03:10:12;;;;;;;0.82;0.73;;;;;;;;;;7394157;19;20125;-68
2022/07/25 03:12:38;;;;;;;0.70;0.70;;;;;;;;;;7390477;19;20173;-68
2022/07/25 03:15:04;;;;;;;0.70;0.70;;;;;;;;;;7391674;19;20124;-68
2022/07/25 03:17:29;;;;;;;0.60;0.60;;;;;;;;;;7392052;19;20147;-68
2022/07/25 03:19:55;;;;;;;0.55;0.55;;;;;;;;;;7392150;19;20185;-68
2022/07/25 03:22:21;;;;;;;0.32;0.32;;;;;;;;;;7391780;19;21207;-68
2022/07/25 03:24:47;;;;;;;0.30;0.30;;;;;;;;;;7392899;19;20129;-68
2022/07/25 03:27:12;;;;;;;0.52;0.52;;;;;;;;;;7393452;19;20117;-68
2022/07/25 03:29:38;;;;;;;0.70;0.70;;;;;;;;;;7393178;19;20125;-68
2022/07/25 03:32:04;;;;;;;0.57;0.57;;;;;;;;;;7391836;19;20649;-68
2022/07/25 03:34:29;;;;;;;0.88;0.88;;;;;;;;;;7391156;19;20141;-68
2022/07/25 03:36:54;;;;;;;0.75;0.75;;;;;;;;;;7391850;19;20473;-68
2022/07/25 03:39:20;;;;;;;0.45;0.45;;;;;;;;;;7393761;19;20149;-68
2022/07/25 03:41:45;;;;;;;0.50;0.50;;;;;;;;;;7391223;19;20141;-68
2022/07/25 03:44:11;;;;;;;0.70;0.70;;;;;;;;;;7390804;19;20144;-68
2022/07/25 03:46:36;;;;;;;0.30;0.30;;;;;;;;;;7390239;19;20125;-68
2022/07/25 03:49:02;;;;;;;0.57;0.57;;;;;;;;;;7393570;19;20133;-68
2022/07/25 03:51:27;;;;;;;0.50;0.50;;;;;;;;;;7391419;19;20591;-68
2022/07/25 03:54:01;;;;;;;0.55;0.55;;;;;;;;;;7389973;19;20238;-68
2022/07/25 03:56:31;;;;;;;0.52;0.52;;;;;;;;;;7393392;19;20143;-68
2022/07/25 03:58:57;;;;;;;0.80;0.80;;;;;;;;;;7392819;19;20124;-68
2022/07/25 04:01:22;;;;;;;0.30;0.30;;;;;;;;;;7390949;19;20152;-68
2022/07/25 04:03:48;;;;;;;0.40;0.40;;;;;;;;;;7390342;19;20240;-68
2022/07/25 04:06:13;;;;;;;0.82;0.82;;;;;;;;;;7389242;19;20584;-68
2022/07/25 04:08:38;;;;;;;0.35;0.35;;;;;;;;;;7391923;19;20132;-68
2022/07/25 04:11:04;;;;;;;1.92;1.77;;;;;;;;;;7390088;19;20149;-68
2022/07/25 04:13:29;;;;;;;0.30;0.30;;;;;;;;;;7390273;19;20197;-68
2022/07/25 04:15:55;;;;;;;0.75;0.68;;;;;;;;;;7388407;19;20560;-68
2022/07/25 04:18:20;;;;;;;0.60;0.60;;;;;;;;;;7389656;19;20149;-68
2022/07/25 04:20:45;;;;;;;0.77;0.77;;;;;;;;;;7391579;19;20180;-68
2022/07/25 04:23:11;;;;;;;0.35;0.35;;;;;;;;;;7392313;19;20184;-68
2022/07/25 04:25:36;;;;;;;1.08;1.02;;;;;;;;;;7390217;19;20471;-68
2022/07/25 04:28:01;;;;;;;0.82;0.82;;;;;;;;;;7392061;19;20129;-68
2022/07/25 04:30:27;;;;;;;0.40;0.40;;;;;;;;;;7391750;19;20186;-68
2022/07/25 04:32:52;;;;;;;0.50;0.47;;;;;;;;;;7389536;19;20173;-68
2022/07/25 04:35:17;;;;;;;0.85;0.85;;;;;;;;;;7389267;19;20156;-69
2022/07/25 16:37:41;;;;;;;0.47;0.47;;;;;;;;;;7391022;19;20626;-69
2022/07/25 16:40:08;;;;;;;0.98;0.98;;;;;;;;;;7389671;19;20865;-70
2022/07/25 16:42:34;;;;;;;0.57;0.57;;;;;;;;;;7390732;19;20670;-69
2022/07/25 16:44:59;;;;;;;1.13;1.02;;;;;;;;;;7391749;19;20172;-69
2022/07/25 16:47:24;;;;;;;1.20;0.85;;;;;;;;;;7392280;19;20117;-69
2022/07/25 16:49:50;;;;;;;1.23;1.20;;;;;;;;;;7390174;19;20138;-70
2022/07/25 16:52:15;;;;;;;0.82;0.80;;;;;;;;;;7390950;19;20164;-70
2022/07/25 16:54:41;;;;;;;0.90;0.90;;;;;;;;;;7389849;19;20603;-69
2022/07/25 16:57:07;;;;;;;0.85;0.80;;;;;;;;;;7390144;19;20129;-69
2022/07/25 16:59:32;;;;;;;1.08;0.98;;;;;;;;;;7390759;19;20160;-69
2022/07/25 17:01:58;;;;;;;1.65;1.52;;;;;;;;;;7390381;19;20146;-69
2022/07/25 17:04:23;;;;;;;1.17;1.17;;;;;;;;;;7390299;19;20121;-69
2022/07/25 17:06:48;;;;;;;3.10;1.05;;;;;;;;;;7391478;19;20124;-69
2022/07/25 17:09:14;;;;;;;0.77;0.77;;;;;;;;;;7389654;19;20116;-69
2022/07/25 17:11:39;;;;;;;0.65;0.65;;;;;;;;;;7389144;19;20274;-69
2022/07/25 17:14:04;;;;;;;1.40;1.33;;;;;;;;;;7389180;19;20145;-69
2022/07/25 17:16:30;;;;;;;0.85;0.85;;;;;;;;;;7390563;19;20465;-70
2022/07/25 17:18:56;;;;;;;0.68;0.68;;;;;;;;;;7387130;19;20468;-69
2022/07/25 17:21:21;;;;;;;1.77;0.90;;;;;;;;;;7391272;19;20602;-70
2022/07/25 17:23:49;;;;;;;1.20;1.20;;;;;;;;;;7388643;19;20121;-70
2022/07/25 17:26:14;;;;;;;0.90;0.90;;;;;;;;;;7390551;19;20160;-69
2022/07/25 17:28:40;;;;;;;0.57;0.57;;;;;;;;;;7390979;19;20121;-70
2022/07/25 17:31:05;;;;;;;0.88;0.88;;;;;;;;;;7389311;19;20152;-69
2022/07/25 17:33:31;;;;;;;0.40;0.40;;;;;;;;;;7389121;19;20137;-69
2022/07/25 17:35:57;;;;;;;0.63;0.63;;;;;;;;;;7390029;19;20463;-69
2022/07/25 17:38:23;;;;;;;1.90;0.63;;;;;;;;;;7387698;19;20159;-69
2022/07/25 17:40:48;;;;;;;0.90;0.90;;;;;;;;;;7391365;19;20117;-69
2022/07/25 17:43:13;;;;;;;1.90;1.05;;;;;;;;;;7397606;19;20464;-69
2022/07/25 17:45:39;;;;;;;1.27;1.17;;;;;;;;;;7396972;19;20118;-69
2022/07/25 17:48:04;;;;;;;0.85;0.85;;;;;;;;;;7397239;19;20120;-70
2022/07/25 17:50:29;;;;;;;0.68;0.68;;;;;;;;;;7398158;19;20456;-69
2022/07/25 17:52:58;;;;;;;1.15;1.02;;;;;;;;;;7393811;19;20144;-69
2022/07/25 17:55:24;;;;;;;1.00;1.00;;;;;;;;;;7395268;19;20450;-69
2022/07/25 17:57:53;;;;;;;1.95;0.60;;;;;;;;;;7394265;19;20148;-69
2022/07/25 18:00:20;;;;;;;0.98;0.85;;;;;;;;;;7397322;19;20128;-70
2022/07/25 18:02:46;;;;;;;0.70;0.70;;;;;;;;;;7392349;19;20153;-69
2022/07/25 18:05:11;;;;;;;0.85;0.85;;;;;;;;;;7394151;19;20128;-69
2022/07/25 18:07:39;;;;;;;0.52;0.52;;;;;;;;;;7395164;19;20128;-69
2022/07/25 18:10:06;;;;;;;0.63;0.63;;;;;;;;;;7397186;19;20121;-70
2022/07/25 18:12:31;;;;;;;0.68;0.68;;;;;;;;;;7393330;19;20152;-69
2022/07/25 18:14:56;;;;;;;0.40;0.40;;;;;;;;;;7394287;19;20136;-69
2022/07/25 18:17:22;;;;;;;2.58;0.82;;;;;;;;;;7395515;19;20129;-69
2022/07/25 18:19:47;;;;;;;0.52;0.52;;;;;;;;;;7396294;19;20182;-69
2022/07/25 18:22:12;;;;;;;0.40;0.40;;;;;;;;;;7393845;19;20152;-69
2022/07/25 18:24:38;;;;;;;1.02;1.02;;;;;;;;;;7393334;19;20120;-69
2022/07/25 18:27:03;;;;;;;0.50;0.50;;;;;;;;;;7394964;19;20180;-69
2022/07/25 18:29:28;;;;;;;0.77;0.52;;;;;;;;;;7394128;19;20124;-69
2022/07/25 18:31:53;;;;;;;0.82;0.82;;;;;;;;;;7394766;19;20179;-69
2022/07/25 18:34:19;;;;;;;1.20;1.15;;;;;;;;;;7393923;19;20113;-69
2022/07/25 18:36:44;;;;;;;0.55;0.55;;;;;;;;;;7394974;19;20583;-69
2022/07/25 18:39:09;;;;;;;1.80;0.90;;;;;;;;;;7393678;19;20117;-70
2022/07/25 18:41:36;;;;;;;1.02;0.85;;;;;;;;;;7393994;19;20149;-69
2022/07/25 18:44:01;;;;;;;0.60;0.60;;;;;;;;;;7393345;19;20124;-69
2022/07/25 18:46:28;;;;;;;0.50;0.50;;;;;;;;;;7393000;19;20129;-69
2022/07/25 18:48:53;;;;;;;0.60;0.60;;;;;;;;;;7395734;19;20129;-68
2022/07/25 18:51:19;;;;;;;0.88;0.88;;;;;;;;;;7393878;19;20155;-69
2022/07/25 18:53:44;;;;;;;0.40;0.40;;;;;;;;;;7392377;19;20587;-69
2022/07/25 18:56:09;;;;;;;0.40;0.40;;;;;;;;;;7395879;19;20129;-68
2022/07/25 18:58:35;;;;;;;0.63;0.63;;;;;;;;;;7392540;19;20117;-69
2022/07/25 19:01:01;;;;;;;0.90;0.90;;;;;;;;;;7393636;19;20177;-70
2022/07/25 19:03:27;;;;;;;0.82;0.82;;;;;;;;;;7394914;19;20138;-69
2022/07/25 19:05:53;;;;;;;0.52;0.52;;;;;;;;;;7391867;19;20129;-69
2022/07/25 19:08:18;;;;;;;1.13;1.05;;;;;;;;;;7395153;19;20125;-70
2022/07/25 19:10:44;;;;;;;0.60;0.60;;;;;;;;;;7394743;19;20136;-69
2022/07/25 19:13:09;;;;;;;2.00;0.85;;;;;;;;;;7395266;19;20474;-69
2022/07/25 19:15:34;;;;;;;0.50;0.50;;;;;;;;;;7393476;19;20132;-69
2022/07/25 19:18:02;;;;;;;0.40;0.40;;;;;;;;;;7392707;19;20502;-69
2022/07/25 19:20:27;;;;;;;0.85;0.85;;;;;;;;;;7394238;19;20195;-69
2022/07/25 19:22:53;;;;;;;0.38;0.38;;;;;;;;;;7392266;19;20149;-70
2022/07/25 19:25:18;;;;;;;0.40;0.40;;;;;;;;;;7391630;19;20616;-69
2022/07/25 19:27:43;;;;;;;0.60;0.60;;;;;;;;;;7394713;19;20125;-69
2022/07/25 19:30:09;;;;;;;0.57;0.57;;;;;;;;;;7391704;19;20125;-69
2022/07/25 19:32:35;;;;;;;1.73;1.00;;;;;;;;;;7391710;19;20627;-69
2022/07/25 19:35:02;;;;;;;0.95;0.73;;;;;;;;;;7390252;19;20125;-69
2022/07/25 19:37:27;;;;;;;0.82;0.82;;;;;;;;;;7392658;19;20136;-69
2022/07/25 19:39:53;;;;;;;0.60;0.60;;;;;;;;;;7393983;19;20603;-69
2022/07/25 19:42:18;;;;;;;1.10;1.00;;;;;;;;;;7393160;19;20145;-69
2022/07/25 19:44:44;;;;;;;0.90;0.57;;;;;;;;;;7390589;19;20129;-69
2022/07/25 19:47:10;;;;;;;0.60;0.60;;;;;;;;;;7392455;19;20590;-69
2022/07/25 19:49:35;;;;;;;2.88;1.05;;;;;;;;;;7390780;19;20160;-69
2022/07/25 19:52:00;;;;;;;0.50;0.50;;;;;;;;;;7391076;19;21454;-69
2022/07/25 19:54:26;;;;;;;0.65;0.45;;;;;;;;;;7388991;19;20135;-69
2022/07/25 19:56:52;;;;;;;0.47;0.47;;;;;;;;;;7391821;19;20603;-69
2022/07/25 19:59:17;;;;;;;0.50;0.50;;;;;;;;;;7388605;19;20125;-69
2022/07/25 20:01:45;;;;;;;0.50;0.50;;;;;;;;;;7389962;19;20148;-69
2022/07/25 20:04:10;;;;;;;0.57;0.57;;;;;;;;;;7389700;19;20125;-69
2022/07/25 20:06:36;;;;;;;0.82;0.82;;;;;;;;;;7392082;19;20121;-69
2022/07/25 20:09:02;;;;;;;0.50;0.50;;;;;;;;;;7391899;19;20125;-68
2022/07/25 20:11:27;;;;;;;0.43;0.43;;;;;;;;;;7390999;19;20588;-69
2022/07/25 20:13:53;;;;;;;0.50;0.50;;;;;;;;;;7390525;19;20121;-69
2022/07/25 20:16:18;;;;;;;0.40;0.40;;;;;;;;;;7391311;19;20130;-69
2022/07/25 20:18:44;;;;;;;0.65;0.65;;;;;;;;;;7392369;19;20121;-69
2022/07/25 20:21:10;;;;;;;0.50;0.50;;;;;;;;;;7391591;19;20515;-69
2022/07/25 20:23:35;;;;;;;3.33;0.50;;;;;;;;;;7392658;19;20201;-69
2022/07/25 20:26:01;;;;;;;0.40;0.40;;;;;;;;;;7392862;19;20121;-69
2022/07/25 20:28:26;;;;;;;0.73;0.73;;;;;;;;;;7391891;19;20551;-69
2022/07/25 20:30:52;;;;;;;0.50;0.50;;;;;;;;;;7390361;19;20129;-69
2022/07/25 20:33:18;;;;;;;0.40;0.40;;;;;;;;;;7391802;19;20587;-69
2022/07/25 20:35:44;;;;;;;1.10;1.05;;;;;;;;;;7390462;19;20121;-69
2022/07/25 20:38:09;;;;;;;0.90;0.90;;;;;;;;;;7389157;19;20489;-69
2022/07/25 20:40:34;;;;;;;0.30;0.30;;;;;;;;;;7390140;19;20670;-69
2022/07/25 20:42:59;;;;;;;1.13;1.13;;;;;;;;;;7390160;19;20606;-70
2022/07/25 20:45:25;;;;;;;0.63;0.63;;;;;;;;;;7389156;19;20139;-69
2022/07/25 20:47:50;;;;;;;0.93;0.93;;;;;;;;;;7392003;19;20138;-69
2022/07/25 20:50:16;;;;;;;1.75;0.70;;;;;;;;;;7392124;19;20125;-69
2022/07/25 20:52:41;;;;;;;0.40;0.40;;;;;;;;;;7387942;19;20508;-69
2022/07/25 20:55:07;;;;;;;0.40;0.40;;;;;;;;;;7391376;19;20120;-69
2022/07/25 20:57:33;;;;;;;0.50;0.50;;;;;;;;;;7390690;19;20649;-69
2022/07/25 20:59:58;;;;;;;0.50;0.50;;;;;;;;;;7390295;19;20177;-69
2022/07/25 21:02:24;;;;;;;0.38;0.38;;;;;;;;;;7388731;19;20156;-68
2022/07/25 21:04:49;;;;;;;1.27;0.68;;;;;;;;;;7389408;19;20117;-68
2022/07/25 21:07:15;;;;;;;1.35;0.65;;;;;;;;;;7388846;19;20128;-69
2022/07/25 21:09:40;;;;;;;0.40;0.40;;;;;;;;;;7390805;19;20124;-70
2022/07/25 21:12:06;;;;;;;0.60;0.47;;;;;;;;;;7389158;19;20567;-68
2022/07/25 21:14:31;;;;;;;0.65;0.65;;;;;;;;;;7388206;19;20151;-68
2022/07/25 21:16:56;;;;;;;0.40;0.40;;;;;;;;;;7396338;19;20129;-69
2022/07/25 21:19:22;;;;;;;0.90;0.85;;;;;;;;;;7394791;19;20181;-69
2022/07/25 21:21:47;;;;;;;0.57;0.57;;;;;;;;;;7394820;19;20211;-69
2022/07/25 21:24:13;;;;;;;0.40;0.40;;;;;;;;;;7395457;19;20124;-69
2022/07/25 21:26:38;;;;;;;0.70;0.70;;;;;;;;;;7394439;19;20141;-68
2022/07/25 21:29:05;;;;;;;0.50;0.50;;;;;;;;;;7396242;19;20117;-68
2022/07/25 21:31:31;;;;;;;0.47;0.47;;;;;;;;;;7396185;19;20817;-68
2022/07/25 21:33:56;;;;;;;0.70;0.70;;;;;;;;;;7395812;19;20121;-69
2022/07/25 21:36:22;;;;;;;0.73;0.45;;;;;;;;;;7398386;19;20121;-69
2022/07/25 21:38:47;;;;;;;0.40;0.40;;;;;;;;;;7394250;19;20125;-69
2022/07/25 21:41:12;;;;;;;0.65;0.65;;;;;;;;;;7395842;19;20152;-69
2022/07/25 21:43:38;;;;;;;0.50;0.50;;;;;;;;;;7396696;19;20181;-69
2022/07/25 21:46:04;;;;;;;0.40;0.40;;;;;;;;;;7397828;19;20591;-69
2022/07/25 21:51:13;;;;;;;0.55;0.55;;;;;;;;;;7398619;19;20658;-69
2022/07/25 21:53:38;;;;;;;0.43;0.43;;;;;;;;;;7395294;19;20125;-69
2022/07/25 21:56:04;;;;;;;0.40;0.40;;;;;;;;;;7395140;19;20152;-68
2022/07/25 21:58:29;;;;;;;0.70;0.70;;;;;;;;;;7396470;19;20139;-68
2022/07/25 22:00:54;;;;;;;0.70;0.70;;;;;;;;;;7395257;19;20128;-68
2022/07/25 22:03:21;;;;;;;0.65;0.65;;;;;;;;;;7395283;19;20121;-69
2022/07/25 22:05:46;;;;;;;1.60;0.85;;;;;;;;;;7396878;19;20627;-69
2022/07/25 22:08:11;;;;;;;2.22;0.50;;;;;;;;;;7397262;19;20117;-69
2022/07/25 22:10:37;;;;;;;1.08;1.08;;;;;;;;;;7396535;19;20587;-68
2022/07/25 22:13:02;;;;;;;0.50;0.50;;;;;;;;;;7394346;19;20145;-68
2022/07/25 22:15:28;;;;;;;0.55;0.55;;;;;;;;;;7396084;19;20125;-68
2022/07/25 22:17:53;;;;;;;0.63;0.63;;;;;;;;;;7394527;19;20224;-69
2022/07/25 22:20:19;;;;;;;0.65;0.65;;;;;;;;;;7396421;19;20154;-68
2022/07/25 22:22:45;;;;;;;1.10;1.02;;;;;;;;;;7392590;19;20156;-69
2022/07/25 22:25:11;;;;;;;0.52;0.52;;;;;;;;;;7393799;19;20125;-70
2022/07/25 22:27:36;;;;;;;0.70;0.70;;;;;;;;;;7392573;19;20125;-68
2022/07/25 22:30:03;;;;;;;0.47;0.47;;;;;;;;;;7397538;19;20128;-69
2022/07/25 22:32:28;;;;;;;0.32;0.32;;;;;;;;;;7393785;19;20152;-68
2022/07/25 22:34:53;;;;;;;0.50;0.50;;;;;;;;;;7392240;19;20121;-69
2022/07/25 22:37:18;;;;;;;2.08;1.00;;;;;;;;;;7396458;19;20133;-68
2022/07/25 22:39:44;;;;;;;0.52;0.52;;;;;;;;;;7395377;19;20142;-68
2022/07/25 22:42:09;;;;;;;0.85;0.75;;;;;;;;;;7393933;19;20156;-69
2022/07/25 22:44:34;;;;;;;0.43;0.40;;;;;;;;;;7394422;19;20124;-68
2022/07/25 22:47:00;;;;;;;0.60;0.60;;;;;;;;;;7393173;19;20125;-68
2022/07/25 22:49:25;;;;;;;0.50;0.50;;;;;;;;;;7394266;19;20475;-68
2022/07/25 22:51:50;;;;;;;0.50;0.50;;;;;;;;;;7392672;19;20148;-69
2022/07/25 22:54:16;;;;;;;0.50;0.50;;;;;;;;;;7392974;19;20596;-68
2022/07/25 22:56:41;;;;;;;0.40;0.40;;;;;;;;;;7393057;19;20125;-68
2022/07/25 22:59:06;;;;;;;2.38;1.38;;;;;;;;;;7392334;19;20138;-69
2022/07/25 23:01:32;;;;;;;3.17;0.98;;;;;;;;;;7391453;19;20168;-68
2022/07/25 23:03:57;;;;;;;0.47;0.47;;;;;;;;;;7393749;19;20117;-69
2022/07/25 23:06:22;;;;;;;0.88;0.70;;;;;;;;;;7394933;19;20121;-68
2022/07/25 23:08:48;;;;;;;0.30;0.30;;;;;;;;;;7395796;19;20134;-67
2022/07/25 23:11:14;;;;;;;0.98;0.98;;;;;;;;;;7393563;19;20149;-67
2022/07/25 23:13:39;;;;;;;0.55;0.55;;;;;;;;;;7391622;19;20117;-67
2022/07/25 23:16:05;;;;;;;0.40;0.40;;;;;;;;;;7392134;19;20118;-68
2022/07/25 23:18:30;;;;;;;0.57;0.57;;;;;;;;;;7393171;19;20155;-67
2022/07/25 23:20:56;;;;;;;0.50;0.50;;;;;;;;;;7392667;19;20203;-68
2022/07/25 23:23:21;;;;;;;0.30;0.30;;;;;;;;;;7393878;19;20153;-68
2022/07/25 23:25:47;;;;;;;1.00;0.68;;;;;;;;;;7391508;19;20495;-68
2022/07/25 23:28:12;;;;;;;0.30;0.30;;;;;;;;;;7393729;19;20197;-69
2022/07/25 23:30:37;;;;;;;0.75;0.45;;;;;;;;;;7391657;19;20188;-68
2022/07/25 23:33:03;;;;;;;0.50;0.50;;;;;;;;;;7392145;19;20149;-67
2022/07/25 23:35:28;;;;;;;0.50;0.50;;;;;;;;;;7393704;19;20120;-67
2022/07/25 23:37:54;;;;;;;0.57;0.57;;;;;;;;;;7391701;19;20121;-67
2022/07/25 23:40:19;;;;;;;0.38;0.38;;;;;;;;;;7393055;19;20121;-68
2022/07/25 23:42:44;;;;;;;0.30;0.30;;;;;;;;;;7389607;19;20153;-68
2022/07/25 23:45:10;;;;;;;0.40;0.40;;;;;;;;;;7392884;19;20117;-68
2022/07/25 23:47:35;;;;;;;0.40;0.40;;;;;;;;;;7392712;19;20614;-67
2022/07/25 23:50:00;;;;;;;0.43;0.43;;;;;;;;;;7394182;19;21076;-67
2022/07/25 23:52:26;;;;;;;0.57;0.57;;;;;;;;;;7392348;19;20160;-67
2022/07/25 23:54:51;;;;;;;0.32;0.32;;;;;;;;;;7392448;19;20136;-67
2022/07/25 23:57:17;;;;;;;0.50;0.50;;;;;;;;;;7394245;19;20604;-68
2022/07/25 23:59:42;;;;;;;0.30;0.30;;;;;;;;;;7392555;19;20591;-67
